M.y. Libra Star — 3ALV — position and weather

sailwx.info

Track history (hours):
 
Tides and Currents Weather Stations Pressure Air Temp Water Temp Dewpoint Dewpoint Depression Visibility Wind Speed Wind Dir Waves Ship Positions

M.y. Libra Star

Last reported at 2016-Jul-24 03:33 UTC. Time now 2016-Jul-24 04:52 UTC.
Position N 40°33' E 014°15'.

Length 40 m; draft 3 m.

Type: Pleasure craft. MMSI: 254450000.

Date/timePositionNaut miles runAvg speedWind from/ knotsBaromVisibWave heightAir tempDewpointWater temp
2016-Jul-24 03:33N 40°33' E 014°15'0 0.0
2016-Jul-24 01:27N 40°33' E 014°15'0 0.0
2016-Jul-24 00:33N 40°33' E 014°15'0 0.0
2016-Jul-23 23:27N 40°33' E 014°15'0 0.0
2016-Jul-23 22:33N 40°33' E 014°15'0 0.0
2016-Jul-23 21:33N 40°33' E 014°15'0 0.0
2016-Jul-23 20:27N 40°33' E 014°15'0 0.0
2016-Jul-23 19:15N 40°33' E 014°15'0 0.0
2016-Jul-23 18:33N 40°33' E 014°15'0 0.0
2016-Jul-23 17:21N 40°33' E 014°15'0 0.0
2016-Jul-23 16:27N 40°33' E 014°15'0 0.0
2016-Jul-23 15:33N 40°33' E 014°15'0 0.0
2016-Jul-23 14:33N 40°33' E 014°15'0 0.0
2016-Jul-23 13:33N 40°33' E 014°15'0 0.1
2016-Jul-23 12:15N 40°33' E 014°15'1 1.2
2016-Jul-23 11:29N 40°33' E 014°14'0 0.0
2016-Jul-23 10:32N 40°33' E 014°14'0 0.0
2016-Jul-23 09:32N 40°32' E 014°14'0 0.0
2016-Jul-23 08:32N 40°33' E 014°14'0 0.0
2016-Jul-23 07:32N 40°32' E 014°14'0 0.0
2016-Jul-23 06:23N 40°32' E 014°14'0 0.0
2016-Jul-23 02:32N 40°32' E 014°14'0 0.0
2016-Jul-23 01:20N 40°32' E 014°14'0 0.0
2016-Jul-22 23:26N 40°32' E 014°14'0 0.0
2016-Jul-22 22:32N 40°32' E 014°14'0 0.0
2016-Jul-22 21:32N 40°32' E 014°14'0 0.0
2016-Jul-22 20:29N 40°33' E 014°14'0 0.0
2016-Jul-22 19:05N 40°32' E 014°14'0 0.0
2016-Jul-22 18:29N 40°32' E 014°14'0 0.0
2016-Jul-22 17:32N 40°33' E 014°14'0 0.0
2016-Jul-22 16:32N 40°33' E 014°14'0 0.0
2016-Jul-22 15:32N 40°33' E 014°14'0 0.0
2016-Jul-22 14:32N 40°33' E 014°14'0 0.0
2016-Jul-22 12:07N 40°32' E 014°14'2 4.1
2016-Jul-22 11:33N 40°34' E 014°12'1 5.9
2016-Jul-22 11:28N 40°34' E 014°13'0 0.2
2016-Jul-22 10:33N 40°34' E 014°13'3 2.9
2016-Jul-22 09:24N 40°37' E 014°11'1011.9
2016-Jul-22 08:33N 40°43' E 014°00'3 3.1
2016-Jul-22 07:30N 40°45' E 013°56'0 0.0
2016-Jul-22 04:30N 40°45' E 013°56'0 0.0
2016-Jul-22 03:30N 40°45' E 013°56'0 0.0
2016-Jul-22 02:30N 40°45' E 013°56'0 0.0
2016-Jul-22 01:30N 40°45' E 013°56'0 0.0
2016-Jul-22 00:30N 40°45' E 013°56'0 0.0
2016-Jul-21 23:30N 40°45' E 013°56'0 0.0
2016-Jul-21 22:30N 40°45' E 013°56'0 0.0
2016-Jul-21 21:30N 40°45' E 013°56'0 0.0
2016-Jul-21 20:30N 40°45' E 013°56'0 0.0
2016-Jul-21 19:30N 40°45' E 013°56'0 0.0
2016-Jul-21 18:30N 40°45' E 013°56'0 0.0
2016-Jul-21 17:30N 40°45' E 013°56'0 0.0
2016-Jul-21 16:30N 40°45' E 013°56'0 0.0
2016-Jul-21 15:30N 40°45' E 013°56'0 0.0
2016-Jul-21 14:30N 40°45' E 013°56'0 0.0
2016-Jul-21 13:30N 40°45' E 013°56'0 0.0
2016-Jul-21 12:30N 40°45' E 013°56'0 0.1
2016-Jul-21 11:33N 40°45' E 013°56'4 4.0
2016-Jul-21 10:33N 40°46' E 013°52'1612.4
2016-Jul-21 09:18N 40°44' E 013°31'1111.9
2016-Jul-21 08:24N 40°46' E 013°17'1312.1
2016-Jul-21 07:20N 40°49' E 013°01'1012.5
2016-Jul-21 06:31N 40°51' E 012°48'1212.4
2016-Jul-21 05:33N 40°53' E 012°32'  
2016-Jul-17 17:17N 43°44' E 007°26'0 0.0
2016-Jul-17 04:29N 43°44' E 007°26'0 0.0
2016-Jul-17 03:29N 43°44' E 007°26'0 0.0
2016-Jul-16 22:11N 43°44' E 007°26'0 0.0
2016-Jul-16 21:20N 43°44' E 007°26'0 0.0
2016-Jul-16 20:23N 43°44' E 007°26'0 0.0
2016-Jul-16 19:29N 43°44' E 007°26'0 0.0
2016-Jul-14 16:08N 43°44' E 007°26'0 0.0
2016-Jul-14 15:32N 43°44' E 007°26'0 0.0
2016-Jul-14 14:32N 43°44' E 007°26'0 0.0
2016-Jul-14 13:08N 43°44' E 007°26'  
Track history (hours):
 
Tides and Currents Weather Stations Pressure Air Temp Water Temp Dewpoint Dewpoint Depression Visibility Wind Speed Wind Dir Waves Ship Positions

M.y. Libra Star

Last reported at 2016-Jul-24 03:33 UTC. Time now 2016-Jul-24 04:52 UTC.
Position N 40°33' E 014°15'.

Length 40 m; draft 3 m.

Type: Pleasure craft. MMSI: 254450000.

Date/timePositionNaut miles runAvg speedWind from/ knotsBaromVisibWave heightAir tempDewpointWater temp
2016-Jul-24 03:33N 40°33' E 014°15'0 0.0
2016-Jul-24 01:27N 40°33' E 014°15'0 0.0
2016-Jul-24 00:33N 40°33' E 014°15'0 0.0
2016-Jul-23 23:27N 40°33' E 014°15'0 0.0
2016-Jul-23 22:33N 40°33' E 014°15'0 0.0
2016-Jul-23 21:33N 40°33' E 014°15'0 0.0
2016-Jul-23 20:27N 40°33' E 014°15'0 0.0
2016-Jul-23 19:15N 40°33' E 014°15'0 0.0
2016-Jul-23 18:33N 40°33' E 014°15'0 0.0
2016-Jul-23 17:21N 40°33' E 014°15'0 0.0
2016-Jul-23 16:27N 40°33' E 014°15'0 0.0
2016-Jul-23 15:33N 40°33' E 014°15'0 0.0
2016-Jul-23 14:33N 40°33' E 014°15'0 0.0
2016-Jul-23 13:33N 40°33' E 014°15'0 0.1
2016-Jul-23 12:15N 40°33' E 014°15'1 1.2
2016-Jul-23 11:29N 40°33' E 014°14'0 0.0
2016-Jul-23 10:32N 40°33' E 014°14'0 0.0
2016-Jul-23 09:32N 40°32' E 014°14'0 0.0
2016-Jul-23 08:32N 40°33' E 014°14'0 0.0
2016-Jul-23 07:32N 40°32' E 014°14'0 0.0
2016-Jul-23 06:23N 40°32' E 014°14'0 0.0
2016-Jul-23 02:32N 40°32' E 014°14'0 0.0
2016-Jul-23 01:20N 40°32' E 014°14'0 0.0
2016-Jul-22 23:26N 40°32' E 014°14'0 0.0
2016-Jul-22 22:32N 40°32' E 014°14'0 0.0
2016-Jul-22 21:32N 40°32' E 014°14'0 0.0
2016-Jul-22 20:29N 40°33' E 014°14'0 0.0
2016-Jul-22 19:05N 40°32' E 014°14'0 0.0
2016-Jul-22 18:29N 40°32' E 014°14'0 0.0
2016-Jul-22 17:32N 40°33' E 014°14'0 0.0
2016-Jul-22 16:32N 40°33' E 014°14'0 0.0
2016-Jul-22 15:32N 40°33' E 014°14'0 0.0
2016-Jul-22 14:32N 40°33' E 014°14'0 0.0
2016-Jul-22 12:07N 40°32' E 014°14'2 4.1
2016-Jul-22 11:33N 40°34' E 014°12'1 5.9
2016-Jul-22 11:28N 40°34' E 014°13'0 0.2
2016-Jul-22 10:33N 40°34' E 014°13'3 2.9
2016-Jul-22 09:24N 40°37' E 014°11'1011.9
2016-Jul-22 08:33N 40°43' E 014°00'3 3.1
2016-Jul-22 07:30N 40°45' E 013°56'0 0.0
2016-Jul-22 04:30N 40°45' E 013°56'0 0.0
2016-Jul-22 03:30N 40°45' E 013°56'0 0.0
2016-Jul-22 02:30N 40°45' E 013°56'0 0.0
2016-Jul-22 01:30N 40°45' E 013°56'0 0.0
2016-Jul-22 00:30N 40°45' E 013°56'0 0.0
2016-Jul-21 23:30N 40°45' E 013°56'0 0.0
2016-Jul-21 22:30N 40°45' E 013°56'0 0.0
2016-Jul-21 21:30N 40°45' E 013°56'0 0.0
2016-Jul-21 20:30N 40°45' E 013°56'0 0.0
2016-Jul-21 19:30N 40°45' E 013°56'0 0.0
2016-Jul-21 18:30N 40°45' E 013°56'0 0.0
2016-Jul-21 17:30N 40°45' E 013°56'0 0.0
2016-Jul-21 16:30N 40°45' E 013°56'0 0.0
2016-Jul-21 15:30N 40°45' E 013°56'0 0.0
2016-Jul-21 14:30N 40°45' E 013°56'0 0.0
2016-Jul-21 13:30N 40°45' E 013°56'0 0.0
2016-Jul-21 12:30N 40°45' E 013°56'0 0.1
2016-Jul-21 11:33N 40°45' E 013°56'4 4.0
2016-Jul-21 10:33N 40°46' E 013°52'1612.4
2016-Jul-21 09:18N 40°44' E 013°31'1111.9
2016-Jul-21 08:24N 40°46' E 013°17'1312.1
2016-Jul-21 07:20N 40°49' E 013°01'1012.5
2016-Jul-21 06:31N 40°51' E 012°48'1212.4
2016-Jul-21 05:33N 40°53' E 012°32'  
2016-Jul-17 17:17N 43°44' E 007°26'0 0.0
2016-Jul-17 04:29N 43°44' E 007°26'0 0.0
2016-Jul-17 03:29N 43°44' E 007°26'0 0.0
2016-Jul-16 22:11N 43°44' E 007°26'0 0.0
2016-Jul-16 21:20N 43°44' E 007°26'0 0.0
2016-Jul-16 20:23N 43°44' E 007°26'0 0.0
2016-Jul-16 19:29N 43°44' E 007°26'0 0.0
2016-Jul-14 16:08N 43°44' E 007°26'0 0.0
2016-Jul-14 15:32N 43°44' E 007°26'0 0.0
2016-Jul-14 14:32N 43°44' E 007°26'0 0.0
2016-Jul-14 13:08N 43°44' E 007°26'  

Dump ship's entire track history